sensor_id;sensor_type;location;lat;lon;timestamp;P1;durP1;ratioP1;P2;durP2;ratioP2
22378;SDS011;11357;49.990;7.370;2022-11-12T00:02:21;6.27;;;5.60;;
22378;SDS011;11357;49.990;7.370;2022-11-12T00:04:47;7.60;;;6.40;;
22378;SDS011;11357;49.990;7.370;2022-11-12T00:07:13;6.50;;;5.23;;
22378;SDS011;11357;49.990;7.370;2022-11-12T00:09:38;6.17;;;5.57;;
22378;SDS011;11357;49.990;7.370;2022-11-12T00:12:04;7.10;;;5.87;;
22378;SDS011;11357;49.990;7.370;2022-11-12T00:14:29;7.73;;;6.13;;
22378;SDS011;11357;49.990;7.370;2022-11-12T00:16:55;36.47;;;10.17;;
22378;SDS011;11357;49.990;7.370;2022-11-12T00:19:21;31.73;;;9.90;;
22378;SDS011;11357;49.990;7.370;2022-11-12T00:21:46;14.60;;;9.70;;
22378;SDS011;11357;49.990;7.370;2022-11-12T00:24:12;8.73;;;8.00;;
22378;SDS011;11357;49.990;7.370;2022-11-12T00:26:37;11.37;;;9.63;;
22378;SDS011;11357;49.990;7.370;2022-11-12T00:29:03;11.37;;;10.30;;
22378;SDS011;11357;49.990;7.370;2022-11-12T00:31:29;9.40;;;8.60;;
22378;SDS011;11357;49.990;7.370;2022-11-12T00:33:54;9.23;;;8.43;;
22378;SDS011;11357;49.990;7.370;2022-11-12T00:36:20;8.07;;;7.27;;
22378;SDS011;11357;49.990;7.370;2022-11-12T00:38:46;10.30;;;7.07;;
22378;SDS011;11357;49.990;7.370;2022-11-12T00:41:11;7.97;;;7.10;;
22378;SDS011;11357;49.990;7.370;2022-11-12T00:43:37;7.43;;;6.73;;
22378;SDS011;11357;49.990;7.370;2022-11-12T00:46:03;9.03;;;7.20;;
22378;SDS011;11357;49.990;7.370;2022-11-12T00:48:28;5.70;;;5.17;;
22378;SDS011;11357;49.990;7.370;2022-11-12T00:50:58;6.37;;;5.83;;
22378;SDS011;11357;49.990;7.370;2022-11-12T00:53:28;5.50;;;4.97;;
22378;SDS011;11357;49.990;7.370;2022-11-12T00:55:58;5.67;;;5.17;;
22378;SDS011;11357;49.990;7.370;2022-11-12T00:58:29;7.10;;;5.23;;
22378;SDS011;11357;49.990;7.370;2022-11-12T01:00:56;7.00;;;6.33;;
22378;SDS011;11357;49.990;7.370;2022-11-12T01:03:21;6.70;;;5.80;;
22378;SDS011;11357;49.990;7.370;2022-11-12T01:05:47;9.63;;;7.20;;
22378;SDS011;11357;49.990;7.370;2022-11-12T01:08:13;6.37;;;5.57;;
22378;SDS011;11357;49.990;7.370;2022-11-12T01:10:38;7.17;;;6.10;;
22378;SDS011;11357;49.990;7.370;2022-11-12T01:13:04;7.40;;;6.87;;
22378;SDS011;11357;49.990;7.370;2022-11-12T01:15:30;8.13;;;7.07;;
22378;SDS011;11357;49.990;7.370;2022-11-12T01:17:55;7.70;;;7.10;;
22378;SDS011;11357;49.990;7.370;2022-11-12T01:20:21;7.57;;;6.97;;
22378;SDS011;11357;49.990;7.370;2022-11-12T01:22:47;7.07;;;6.47;;
22378;SDS011;11357;49.990;7.370;2022-11-12T01:25:12;11.00;;;9.97;;
22378;SDS011;11357;49.990;7.370;2022-11-12T01:27:38;12.33;;;8.83;;
22378;SDS011;11357;49.990;7.370;2022-11-12T01:30:04;7.00;;;5.90;;
22378;SDS011;11357;49.990;7.370;2022-11-12T01:32:32;7.20;;;5.83;;
22378;SDS011;11357;49.990;7.370;2022-11-12T01:35:00;5.77;;;5.27;;
22378;SDS011;11357;49.990;7.370;2022-11-12T01:37:25;7.63;;;5.63;;
22378;SDS011;11357;49.990;7.370;2022-11-12T01:39:51;8.10;;;7.13;;
22378;SDS011;11357;49.990;7.370;2022-11-12T01:42:16;5.77;;;5.30;;
22378;SDS011;11357;49.990;7.370;2022-11-12T01:44:43;10.37;;;9.47;;
22378;SDS011;11357;49.990;7.370;2022-11-12T01:47:13;13.27;;;9.37;;
22378;SDS011;11357;49.990;7.370;2022-11-12T01:49:55;7.47;;;5.73;;
22378;SDS011;11357;49.990;7.370;2022-11-12T01:52:31;9.83;;;5.30;;
22378;SDS011;11357;49.990;7.370;2022-11-12T01:55:00;5.93;;;4.93;;
22378;SDS011;11357;49.990;7.370;2022-11-12T01:57:40;7.17;;;4.90;;
22378;SDS011;11357;49.990;7.370;2022-11-12T02:00:11;7.77;;;4.37;;
22378;SDS011;11357;49.990;7.370;2022-11-12T02:02:38;4.47;;;4.07;;
22378;SDS011;11357;49.990;7.370;2022-11-12T02:05:09;5.90;;;4.50;;
22378;SDS011;11357;49.990;7.370;2022-11-12T02:07:37;7.10;;;4.73;;
22378;SDS011;11357;49.990;7.370;2022-11-12T02:10:05;5.23;;;4.10;;
22378;SDS011;11357;49.990;7.370;2022-11-12T02:12:32;6.73;;;4.37;;
22378;SDS011;11357;49.990;7.370;2022-11-12T02:15:16;5.57;;;4.43;;
22378;SDS011;11357;49.990;7.370;2022-11-12T02:17:42;6.43;;;4.43;;
22378;SDS011;11357;49.990;7.370;2022-11-12T02:20:08;6.03;;;4.67;;
22378;SDS011;11357;49.990;7.370;2022-11-12T02:22:36;5.10;;;4.43;;
22378;SDS011;11357;49.990;7.370;2022-11-12T02:25:01;7.90;;;3.93;;
22378;SDS011;11357;49.990;7.370;2022-11-12T02:27:27;7.37;;;3.63;;
22378;SDS011;11357;49.990;7.370;2022-11-12T02:29:53;4.47;;;3.97;;
22378;SDS011;11357;49.990;7.370;2022-11-12T02:32:19;8.17;;;4.33;;
22378;SDS011;11357;49.990;7.370;2022-11-12T02:34:44;4.07;;;3.63;;
22378;SDS011;11357;49.990;7.370;2022-11-12T02:37:10;4.57;;;3.80;;
22378;SDS011;11357;49.990;7.370;2022-11-12T02:39:36;5.80;;;3.90;;
22378;SDS011;11357;49.990;7.370;2022-11-12T02:42:02;4.37;;;3.70;;
22378;SDS011;11357;49.990;7.370;2022-11-12T02:44:28;7.97;;;4.90;;
22378;SDS011;11357;49.990;7.370;2022-11-12T02:46:54;6.40;;;4.50;;
22378;SDS011;11357;49.990;7.370;2022-11-12T02:49:20;6.23;;;4.73;;
22378;SDS011;11357;49.990;7.370;2022-11-12T02:51:45;7.70;;;5.20;;
22378;SDS011;11357;49.990;7.370;2022-11-12T02:54:11;5.37;;;4.10;;
22378;SDS011;11357;49.990;7.370;2022-11-12T02:56:37;6.20;;;3.83;;
22378;SDS011;11357;49.990;7.370;2022-11-12T02:59:02;5.33;;;4.17;;
22378;SDS011;11357;49.990;7.370;2022-11-12T03:01:28;4.80;;;4.10;;
22378;SDS011;11357;49.990;7.370;2022-11-12T03:03:54;8.70;;;3.60;;
22378;SDS011;11357;49.990;7.370;2022-11-12T03:06:19;5.63;;;3.90;;
22378;SDS011;11357;49.990;7.370;2022-11-12T03:08:45;5.20;;;4.23;;
22378;SDS011;11357;49.990;7.370;2022-11-12T03:11:11;4.20;;;3.60;;
22378;SDS011;11357;49.990;7.370;2022-11-12T03:13:39;6.93;;;4.77;;
22378;SDS011;11357;49.990;7.370;2022-11-12T03:16:04;8.20;;;6.07;;
22378;SDS011;11357;49.990;7.370;2022-11-12T03:18:30;6.40;;;4.83;;
22378;SDS011;11357;49.990;7.370;2022-11-12T03:20:56;8.83;;;5.97;;
22378;SDS011;11357;49.990;7.370;2022-11-12T03:23:21;8.67;;;6.10;;
22378;SDS011;11357;49.990;7.370;2022-11-12T03:25:47;6.90;;;5.57;;
22378;SDS011;11357;49.990;7.370;2022-11-12T03:28:13;9.53;;;5.70;;
22378;SDS011;11357;49.990;7.370;2022-11-12T03:30:41;7.13;;;5.30;;
22378;SDS011;11357;49.990;7.370;2022-11-12T03:33:08;8.47;;;5.10;;
22378;SDS011;11357;49.990;7.370;2022-11-12T03:35:35;7.87;;;4.47;;
22378;SDS011;11357;49.990;7.370;2022-11-12T03:38:01;6.60;;;4.00;;
22378;SDS011;11357;49.990;7.370;2022-11-12T03:40:27;9.33;;;3.80;;
22378;SDS011;11357;49.990;7.370;2022-11-12T03:42:54;6.37;;;4.47;;
22378;SDS011;11357;49.990;7.370;2022-11-12T03:45:20;5.60;;;4.10;;
22378;SDS011;11357;49.990;7.370;2022-11-12T03:47:48;6.47;;;4.53;;
22378;SDS011;11357;49.990;7.370;2022-11-12T03:50:16;7.27;;;3.97;;
22378;SDS011;11357;49.990;7.370;2022-11-12T03:52:44;7.63;;;4.13;;
22378;SDS011;11357;49.990;7.370;2022-11-12T03:55:11;7.27;;;3.87;;
22378;SDS011;11357;49.990;7.370;2022-11-12T03:57:38;7.53;;;4.70;;
22378;SDS011;11357;49.990;7.370;2022-11-12T04:00:04;3.93;;;3.33;;
22378;SDS011;11357;49.990;7.370;2022-11-12T04:02:31;5.40;;;3.90;;
22378;SDS011;11357;49.990;7.370;2022-11-12T04:04:57;4.63;;;3.83;;
22378;SDS011;11357;49.990;7.370;2022-11-12T04:07:41;10.73;;;4.33;;
22378;SDS011;11357;49.990;7.370;2022-11-12T04:10:25;5.37;;;3.50;;
22378;SDS011;11357;49.990;7.370;2022-11-12T04:12:53;4.87;;;3.80;;
22378;SDS011;11357;49.990;7.370;2022-11-12T04:15:38;6.47;;;3.63;;
22378;SDS011;11357;49.990;7.370;2022-11-12T04:18:03;5.90;;;3.97;;
22378;SDS011;11357;49.990;7.370;2022-11-12T04:20:48;7.33;;;4.13;;
22378;SDS011;11357;49.990;7.370;2022-11-12T04:23:32;6.93;;;3.97;;
22378;SDS011;11357;49.990;7.370;2022-11-12T04:25:57;5.13;;;4.13;;
22378;SDS011;11357;49.990;7.370;2022-11-12T04:28:41;7.87;;;4.10;;
22378;SDS011;11357;49.990;7.370;2022-11-12T04:31:27;6.87;;;4.00;;
22378;SDS011;11357;49.990;7.370;2022-11-12T04:33:52;5.63;;;3.80;;
22378;SDS011;11357;49.990;7.370;2022-11-12T04:36:18;5.27;;;3.63;;
22378;SDS011;11357;49.990;7.370;2022-11-12T04:38:44;4.33;;;3.47;;
22378;SDS011;11357;49.990;7.370;2022-11-12T04:41:09;5.83;;;4.33;;
22378;SDS011;11357;49.990;7.370;2022-11-12T04:43:54;12.00;;;4.90;;
22378;SDS011;11357;49.990;7.370;2022-11-12T04:46:38;7.37;;;4.47;;
22378;SDS011;11357;49.990;7.370;2022-11-12T04:49:04;66.93;;;6.60;;
22378;SDS011;11357;49.990;7.370;2022-11-12T04:51:29;46.53;;;6.43;;
22378;SDS011;11357;49.990;7.370;2022-11-12T04:54:13;7.90;;;4.37;;
22378;SDS011;11357;49.990;7.370;2022-11-12T04:56:39;7.87;;;4.70;;
22378;SDS011;11357;49.990;7.370;2022-11-12T04:59:04;12.27;;;4.60;;
22378;SDS011;11357;49.990;7.370;2022-11-12T05:01:30;7.73;;;4.57;;
22378;SDS011;11357;49.990;7.370;2022-11-12T05:03:56;8.27;;;5.00;;
22378;SDS011;11357;49.990;7.370;2022-11-12T05:06:21;6.67;;;4.93;;
22378;SDS011;11357;49.990;7.370;2022-11-12T05:09:06;6.10;;;4.33;;
22378;SDS011;11357;49.990;7.370;2022-11-12T05:11:31;6.73;;;4.63;;
22378;SDS011;11357;49.990;7.370;2022-11-12T05:13:57;9.33;;;4.37;;
22378;SDS011;11357;49.990;7.370;2022-11-12T05:16:22;5.40;;;4.50;;
22378;SDS011;11357;49.990;7.370;2022-11-12T05:18:48;5.57;;;4.17;;
22378;SDS011;11357;49.990;7.370;2022-11-12T05:21:14;6.33;;;4.10;;
22378;SDS011;11357;49.990;7.370;2022-11-12T05:23:58;4.80;;;3.83;;
22378;SDS011;11357;49.990;7.370;2022-11-12T05:26:23;8.43;;;4.30;;
22378;SDS011;11357;49.990;7.370;2022-11-12T05:28:49;10.03;;;4.40;;
22378;SDS011;11357;49.990;7.370;2022-11-12T05:31:14;10.40;;;4.60;;
22378;SDS011;11357;49.990;7.370;2022-11-12T05:33:40;105.87;;;6.90;;
22378;SDS011;11357;49.990;7.370;2022-11-12T05:36:06;11.00;;;5.40;;
22378;SDS011;11357;49.990;7.370;2022-11-12T05:38:32;9.40;;;5.57;;
22378;SDS011;11357;49.990;7.370;2022-11-12T05:40:57;7.33;;;5.00;;
22378;SDS011;11357;49.990;7.370;2022-11-12T05:43:23;5.97;;;3.87;;
22378;SDS011;11357;49.990;7.370;2022-11-12T05:45:48;5.77;;;4.00;;
22378;SDS011;11357;49.990;7.370;2022-11-12T05:48:14;7.23;;;4.40;;
22378;SDS011;11357;49.990;7.370;2022-11-12T05:50:40;16.40;;;4.67;;
22378;SDS011;11357;49.990;7.370;2022-11-12T05:53:05;17.10;;;4.43;;
22378;SDS011;11357;49.990;7.370;2022-11-12T05:55:31;20.17;;;4.17;;
22378;SDS011;11357;49.990;7.370;2022-11-12T05:57:56;5.60;;;3.70;;
22378;SDS011;11357;49.990;7.370;2022-11-12T06:00:22;6.27;;;3.17;;
22378;SDS011;11357;49.990;7.370;2022-11-12T06:02:47;3.57;;;3.20;;
22378;SDS011;11357;49.990;7.370;2022-11-12T06:05:13;3.60;;;2.93;;
22378;SDS011;11357;49.990;7.370;2022-11-12T06:07:39;3.33;;;2.93;;
22378;SDS011;11357;49.990;7.370;2022-11-12T06:10:04;3.93;;;2.73;;
22378;SDS011;11357;49.990;7.370;2022-11-12T06:12:31;2.63;;;2.40;;
22378;SDS011;11357;49.990;7.370;2022-11-12T06:14:56;2.43;;;2.03;;
22378;SDS011;11357;49.990;7.370;2022-11-12T06:17:22;3.27;;;2.70;;
22378;SDS011;11357;49.990;7.370;2022-11-12T06:19:47;5.53;;;2.90;;
22378;SDS011;11357;49.990;7.370;2022-11-12T06:22:13;3.57;;;3.10;;
22378;SDS011;11357;49.990;7.370;2022-11-12T06:24:39;2.83;;;2.60;;
22378;SDS011;11357;49.990;7.370;2022-11-12T06:27:04;3.40;;;2.77;;
22378;SDS011;11357;49.990;7.370;2022-11-12T06:29:30;3.20;;;2.77;;
22378;SDS011;11357;49.990;7.370;2022-11-12T06:31:55;3.37;;;2.77;;
22378;SDS011;11357;49.990;7.370;2022-11-12T06:34:21;6.03;;;3.43;;
22378;SDS011;11357;49.990;7.370;2022-11-12T06:36:47;4.80;;;3.80;;
22378;SDS011;11357;49.990;7.370;2022-11-12T06:39:13;5.67;;;4.17;;
22378;SDS011;11357;49.990;7.370;2022-11-12T06:41:38;4.27;;;2.83;;
22378;SDS011;11357;49.990;7.370;2022-11-12T06:44:04;5.87;;;2.50;;
22378;SDS011;11357;49.990;7.370;2022-11-12T06:46:30;3.53;;;2.90;;
22378;SDS011;11357;49.990;7.370;2022-11-12T06:48:55;6.47;;;3.23;;
22378;SDS011;11357;49.990;7.370;2022-11-12T06:51:21;3.93;;;2.53;;
22378;SDS011;11357;49.990;7.370;2022-11-12T06:53:47;3.40;;;2.90;;
22378;SDS011;11357;49.990;7.370;2022-11-12T06:56:13;3.77;;;3.40;;
22378;SDS011;11357;49.990;7.370;2022-11-12T06:58:39;6.07;;;4.90;;
22378;SDS011;11357;49.990;7.370;2022-11-12T07:01:12;6.50;;;4.27;;
22378;SDS011;11357;49.990;7.370;2022-11-12T07:03:40;7.60;;;5.47;;
22378;SDS011;11357;49.990;7.370;2022-11-12T07:06:08;6.73;;;5.10;;
22378;SDS011;11357;49.990;7.370;2022-11-12T07:08:35;5.60;;;4.23;;
22378;SDS011;11357;49.990;7.370;2022-11-12T07:11:02;4.33;;;2.90;;
22378;SDS011;11357;49.990;7.370;2022-11-12T07:13:29;4.87;;;4.13;;
22378;SDS011;11357;49.990;7.370;2022-11-12T07:15:56;4.07;;;3.60;;
22378;SDS011;11357;49.990;7.370;2022-11-12T07:18:23;3.40;;;2.80;;
22378;SDS011;11357;49.990;7.370;2022-11-12T07:20:49;4.67;;;3.23;;
22378;SDS011;11357;49.990;7.370;2022-11-12T07:23:15;5.30;;;3.60;;
22378;SDS011;11357;49.990;7.370;2022-11-12T07:25:40;4.17;;;2.80;;
22378;SDS011;11357;49.990;7.370;2022-11-12T07:28:06;3.13;;;2.83;;
22378;SDS011;11357;49.990;7.370;2022-11-12T07:30:31;3.30;;;2.77;;
22378;SDS011;11357;49.990;7.370;2022-11-12T07:32:57;4.57;;;3.43;;
22378;SDS011;11357;49.990;7.370;2022-11-12T07:35:23;5.30;;;3.13;;
22378;SDS011;11357;49.990;7.370;2022-11-12T07:37:48;4.97;;;3.47;;
22378;SDS011;11357;49.990;7.370;2022-11-12T07:40:14;3.60;;;2.80;;
22378;SDS011;11357;49.990;7.370;2022-11-12T07:42:40;3.33;;;2.50;;
22378;SDS011;11357;49.990;7.370;2022-11-12T07:45:05;3.80;;;3.00;;
22378;SDS011;11357;49.990;7.370;2022-11-12T07:47:31;2.90;;;2.53;;
22378;SDS011;11357;49.990;7.370;2022-11-12T07:49:57;8.20;;;3.57;;
22378;SDS011;11357;49.990;7.370;2022-11-12T07:52:23;4.43;;;3.93;;
22378;SDS011;11357;49.990;7.370;2022-11-12T07:54:48;9.90;;;6.63;;
22378;SDS011;11357;49.990;7.370;2022-11-12T07:57:14;9.70;;;6.67;;
22378;SDS011;11357;49.990;7.370;2022-11-12T07:59:40;10.00;;;5.50;;
22378;SDS011;11357;49.990;7.370;2022-11-12T08:02:06;8.77;;;5.70;;
22378;SDS011;11357;49.990;7.370;2022-11-12T08:04:33;5.87;;;4.37;;
22378;SDS011;11357;49.990;7.370;2022-11-12T08:06:59;6.50;;;4.47;;
22378;SDS011;11357;49.990;7.370;2022-11-12T08:09:25;16.50;;;4.60;;
22378;SDS011;11357;49.990;7.370;2022-11-12T08:11:52;19.27;;;5.63;;
22378;SDS011;11357;49.990;7.370;2022-11-12T08:14:18;7.10;;;5.63;;
22378;SDS011;11357;49.990;7.370;2022-11-12T08:16:44;11.20;;;5.37;;
22378;SDS011;11357;49.990;7.370;2022-11-12T08:19:10;30.50;;;7.03;;
22378;SDS011;11357;49.990;7.370;2022-11-12T08:21:36;103.80;;;7.97;;
22378;SDS011;11357;49.990;7.370;2022-11-12T08:24:02;124.70;;;8.80;;
22378;SDS011;11357;49.990;7.370;2022-11-12T08:26:27;20.43;;;5.57;;
22378;SDS011;11357;49.990;7.370;2022-11-12T08:28:53;9.27;;;4.80;;
22378;SDS011;11357;49.990;7.370;2022-11-12T08:31:19;111.93;;;9.40;;
22378;SDS011;11357;49.990;7.370;2022-11-12T08:33:46;108.20;;;8.83;;
22378;SDS011;11357;49.990;7.370;2022-11-12T08:36:12;124.00;;;7.83;;
22378;SDS011;11357;49.990;7.370;2022-11-12T08:38:39;159.77;;;11.10;;
22378;SDS011;11357;49.990;7.370;2022-11-12T08:41:06;116.63;;;9.43;;
22378;SDS011;11357;49.990;7.370;2022-11-12T08:43:33;58.57;;;8.63;;
22378;SDS011;11357;49.990;7.370;2022-11-12T08:45:59;104.80;;;7.67;;
22378;SDS011;11357;49.990;7.370;2022-11-12T08:48:26;22.37;;;8.40;;
22378;SDS011;11357;49.990;7.370;2022-11-12T08:50:53;18.97;;;7.93;;
22378;SDS011;11357;49.990;7.370;2022-11-12T08:53:19;36.70;;;12.27;;
22378;SDS011;11357;49.990;7.370;2022-11-12T08:55:46;39.23;;;13.70;;
22378;SDS011;11357;49.990;7.370;2022-11-12T08:58:12;11.60;;;10.53;;
22378;SDS011;11357;49.990;7.370;2022-11-12T09:00:39;36.10;;;13.20;;
22378;SDS011;11357;49.990;7.370;2022-11-12T09:03:06;60.47;;;22.67;;
22378;SDS011;11357;49.990;7.370;2022-11-12T09:05:36;39.40;;;18.03;;
22378;SDS011;11357;49.990;7.370;2022-11-12T09:08:03;29.30;;;26.77;;
22378;SDS011;11357;49.990;7.370;2022-11-12T09:10:31;32.83;;;30.87;;
22378;SDS011;11357;49.990;7.370;2022-11-12T09:12:57;64.43;;;60.50;;
22378;SDS011;11357;49.990;7.370;2022-11-12T09:15:23;120.77;;;113.50;;
22378;SDS011;11357;49.990;7.370;2022-11-12T09:17:56;138.13;;;130.17;;
22378;SDS011;11357;49.990;7.370;2022-11-12T09:20:23;176.30;;;164.67;;
22378;SDS011;11357;49.990;7.370;2022-11-12T09:22:50;270.17;;;251.43;;
22378;SDS011;11357;49.990;7.370;2022-11-12T09:25:16;289.23;;;270.67;;
22378;SDS011;11357;49.990;7.370;2022-11-12T09:27:41;373.63;;;347.70;;
22378;SDS011;11357;49.990;7.370;2022-11-12T09:30:07;380.73;;;354.93;;
22378;SDS011;11357;49.990;7.370;2022-11-12T09:32:33;394.90;;;367.67;;
22378;SDS011;11357;49.990;7.370;2022-11-12T09:34:59;410.50;;;381.27;;
22378;SDS011;11357;49.990;7.370;2022-11-12T09:37:24;392.83;;;365.13;;
22378;SDS011;11357;49.990;7.370;2022-11-12T09:39:50;454.90;;;422.20;;
22378;SDS011;11357;49.990;7.370;2022-11-12T09:42:16;509.10;;;469.53;;
22378;SDS011;11357;49.990;7.370;2022-11-12T09:44:46;521.63;;;480.60;;
22378;SDS011;11357;49.990;7.370;2022-11-12T09:47:37;621.47;;;567.73;;
22378;SDS011;11357;49.990;7.370;2022-11-12T09:50:19;694.50;;;631.03;;
22378;SDS011;11357;49.990;7.370;2022-11-12T09:52:47;743.07;;;671.70;;
22378;SDS011;11357;49.990;7.370;2022-11-12T09:58:23;839.10;;;727.13;;
22378;SDS011;11357;49.990;7.370;2022-11-12T10:00:56;1518.33;;;851.97;;
22378;SDS011;11357;49.990;7.370;2022-11-12T10:03:30;1710.43;;;873.70;;
22378;SDS011;11357;49.990;7.370;2022-11-12T10:06:19;1917.10;;;865.50;;
22378;SDS011;11357;49.990;7.370;2022-11-12T10:18:23;1999.90;;;671.17;;
22378;SDS011;11357;49.990;7.370;2022-11-12T10:20:55;1999.90;;;999.90;;
22378;SDS011;11357;49.990;7.370;2022-11-12T10:23:42;1999.90;;;999.90;;
22378;SDS011;11357;49.990;7.370;2022-11-12T10:26:11;1999.90;;;999.90;;
22378;SDS011;11357;49.990;7.370;2022-11-12T10:31:11;1999.90;;;999.90;;
22378;SDS011;11357;49.990;7.370;2022-11-12T10:33:39;1999.90;;;872.63;;
22378;SDS011;11357;49.990;7.370;2022-11-12T10:36:13;1999.90;;;955.87;;
22378;SDS011;11357;49.990;7.370;2022-11-12T10:38:41;1999.90;;;999.90;;
22378;SDS011;11357;49.990;7.370;2022-11-12T10:41:28;1999.90;;;941.73;;
22378;SDS011;11357;49.990;7.370;2022-11-12T10:46:27;1953.53;;;919.07;;
22378;SDS011;11357;49.990;7.370;2022-11-12T10:48:59;1999.90;;;999.90;;
22378;SDS011;11357;49.990;7.370;2022-11-12T10:51:33;1939.53;;;943.67;;
22378;SDS011;11357;49.990;7.370;2022-11-12T10:54:20;1270.87;;;942.10;;
22378;SDS011;11357;49.990;7.370;2022-11-12T11:00:31;648.30;;;598.30;;
22378;SDS011;11357;49.990;7.370;2022-11-12T11:02:51;750.70;;;662.10;;
22378;SDS011;11357;49.990;7.370;2022-11-12T11:08:12;950.97;;;799.43;;
22378;SDS011;11357;49.990;7.370;2022-11-12T11:10:37;749.67;;;684.10;;
22378;SDS011;11357;49.990;7.370;2022-11-12T11:13:36;886.17;;;772.30;;
22378;SDS011;11357;49.990;7.370;2022-11-12T11:15:59;748.47;;;675.47;;
22378;SDS011;11357;49.990;7.370;2022-11-12T11:18:27;866.80;;;772.83;;
22378;SDS011;11357;49.990;7.370;2022-11-12T11:21:05;797.67;;;716.97;;
22378;SDS011;11357;49.990;7.370;2022-11-12T11:23:55;768.03;;;685.50;;
22378;SDS011;11357;49.990;7.370;2022-11-12T11:40:43;1309.50;;;824.27;;
22378;SDS011;11357;49.990;7.370;2022-11-12T11:51:33;798.10;;;717.33;;
22378;SDS011;11357;49.990;7.370;2022-11-12T11:57:11;846.43;;;732.40;;
22378;SDS011;11357;49.990;7.370;2022-11-12T11:59:56;896.13;;;760.63;;
22378;SDS011;11357;49.990;7.370;2022-11-12T12:03:17;978.13;;;756.70;;
22378;SDS011;11357;49.990;7.370;2022-11-12T12:16:34;592.97;;;545.80;;
22378;SDS011;11357;49.990;7.370;2022-11-12T12:19:12;524.73;;;486.60;;
22378;SDS011;11357;49.990;7.370;2022-11-12T12:21:45;558.73;;;515.50;;
22378;SDS011;11357;49.990;7.370;2022-11-12T12:24:18;154.23;;;145.73;;
22378;SDS011;11357;49.990;7.370;2022-11-12T12:26:59;356.20;;;332.73;;
22378;SDS011;11357;49.990;7.370;2022-11-12T12:29:43;408.67;;;380.97;;
22378;SDS011;11357;49.990;7.370;2022-11-12T12:32:18;456.03;;;422.10;;
22378;SDS011;11357;49.990;7.370;2022-11-12T12:35:06;405.30;;;378.63;;
22378;SDS011;11357;49.990;7.370;2022-11-12T12:40:36;627.37;;;575.90;;
22378;SDS011;11357;49.990;7.370;2022-11-12T12:45:46;828.00;;;727.63;;
22378;SDS011;11357;49.990;7.370;2022-11-12T12:48:13;631.60;;;577.33;;
22378;SDS011;11357;49.990;7.370;2022-11-12T12:50:43;688.43;;;625.23;;
22378;SDS011;11357;49.990;7.370;2022-11-12T12:53:31;1282.03;;;806.87;;
22378;SDS011;11357;49.990;7.370;2022-11-12T12:55:57;1370.60;;;838.87;;
22378;SDS011;11357;49.990;7.370;2022-11-12T13:01:03;1999.90;;;887.23;;
22378;SDS011;11357;49.990;7.370;2022-11-12T13:06:23;1999.90;;;923.53;;
22378;SDS011;11357;49.990;7.370;2022-11-12T13:32:41;530.93;;;490.27;;
22378;SDS011;11357;49.990;7.370;2022-11-12T13:51:40;356.17;;;331.17;;
22378;SDS011;11357;49.990;7.370;2022-11-12T13:56:54;194.83;;;184.00;;
22378;SDS011;11357;49.990;7.370;2022-11-12T13:59:21;402.60;;;375.17;;
22378;SDS011;11357;49.990;7.370;2022-11-12T14:01:48;447.00;;;415.03;;
22378;SDS011;11357;49.990;7.370;2022-11-12T14:04:15;595.53;;;547.07;;
22378;SDS011;11357;49.990;7.370;2022-11-12T14:06:44;415.00;;;385.60;;
22378;SDS011;11357;49.990;7.370;2022-11-12T14:19:59;864.03;;;722.67;;
22378;SDS011;11357;49.990;7.370;2022-11-12T14:22:35;777.20;;;690.93;;
22378;SDS011;11357;49.990;7.370;2022-11-12T14:25:10;630.60;;;572.67;;
22378;SDS011;11357;49.990;7.370;2022-11-12T14:27:39;503.03;;;465.03;;
22378;SDS011;11357;49.990;7.370;2022-11-12T14:32:40;900.67;;;769.40;;
22378;SDS011;11357;49.990;7.370;2022-11-12T14:40:23;755.70;;;683.43;;
22378;SDS011;11357;49.990;7.370;2022-11-12T14:42:51;1110.20;;;772.53;;
22378;SDS011;11357;49.990;7.370;2022-11-12T14:45:18;642.37;;;584.77;;
22378;SDS011;11357;49.990;7.370;2022-11-12T14:47:45;626.00;;;575.07;;
22378;SDS011;11357;49.990;7.370;2022-11-12T14:50:24;474.30;;;441.20;;
22378;SDS011;11357;49.990;7.370;2022-11-12T14:53:16;700.13;;;628.07;;
22378;SDS011;11357;49.990;7.370;2022-11-12T14:56:00;686.73;;;621.93;;
22378;SDS011;11357;49.990;7.370;2022-11-12T14:58:28;844.97;;;706.80;;
22378;SDS011;11357;49.990;7.370;2022-11-12T15:00:56;1040.13;;;773.27;;
22378;SDS011;11357;49.990;7.370;2022-11-12T15:03:24;1174.33;;;790.93;;
22378;SDS011;11357;49.990;7.370;2022-11-12T15:05:56;801.80;;;705.03;;
22378;SDS011;11357;49.990;7.370;2022-11-12T15:08:32;669.97;;;611.37;;
22378;SDS011;11357;49.990;7.370;2022-11-12T15:14:08;564.53;;;519.37;;
22378;SDS011;11357;49.990;7.370;2022-11-12T15:16:46;675.10;;;612.87;;
22378;SDS011;11357;49.990;7.370;2022-11-12T15:21:43;870.80;;;709.13;;
22378;SDS011;11357;49.990;7.370;2022-11-12T15:26:37;787.83;;;705.10;;
22378;SDS011;11357;49.990;7.370;2022-11-12T15:29:12;785.93;;;689.93;;
22378;SDS011;11357;49.990;7.370;2022-11-12T15:34:43;811.00;;;707.20;;
22378;SDS011;11357;49.990;7.370;2022-11-12T15:37:19;1200.30;;;823.93;;
22378;SDS011;11357;49.990;7.370;2022-11-12T15:39:52;1835.80;;;856.10;;
22378;SDS011;11357;49.990;7.370;2022-11-12T15:42:33;1597.20;;;830.73;;
22378;SDS011;11357;49.990;7.370;2022-11-12T15:45:03;1861.90;;;829.10;;
22378;SDS011;11357;49.990;7.370;2022-11-12T15:47:47;1887.77;;;840.73;;
22378;SDS011;11357;49.990;7.370;2022-11-12T15:50:20;1999.90;;;897.77;;
22378;SDS011;11357;49.990;7.370;2022-11-12T15:52:47;1999.90;;;895.57;;
22378;SDS011;11357;49.990;7.370;2022-11-12T15:55:13;1681.47;;;867.80;;
22378;SDS011;11357;49.990;7.370;2022-11-12T15:57:43;1999.90;;;841.47;;
22378;SDS011;11357;49.990;7.370;2022-11-12T16:00:23;1987.70;;;768.97;;
22378;SDS011;11357;49.990;7.370;2022-11-12T16:02:54;1999.90;;;799.90;;
22378;SDS011;11357;49.990;7.370;2022-11-12T16:05:29;1999.90;;;862.20;;
22378;SDS011;11357;49.990;7.370;2022-11-12T16:07:55;1999.90;;;999.90;;
22378;SDS011;11357;49.990;7.370;2022-11-12T16:10:20;1999.90;;;794.43;;
22378;SDS011;11357;49.990;7.370;2022-11-12T16:12:46;1965.53;;;854.13;;
22378;SDS011;11357;49.990;7.370;2022-11-12T16:15:15;1896.50;;;889.93;;
22378;SDS011;11357;49.990;7.370;2022-11-12T16:17:43;1659.70;;;823.90;;
22378;SDS011;11357;49.990;7.370;2022-11-12T16:22:47;1546.87;;;800.30;;
22378;SDS011;11357;49.990;7.370;2022-11-12T16:25:13;1789.73;;;803.60;;
22378;SDS011;11357;49.990;7.370;2022-11-12T16:27:39;1800.83;;;861.87;;
22378;SDS011;11357;49.990;7.370;2022-11-12T16:30:12;1406.50;;;832.33;;
22378;SDS011;11357;49.990;7.370;2022-11-12T16:32:39;1738.33;;;805.77;;
22378;SDS011;11357;49.990;7.370;2022-11-12T16:35:05;1321.13;;;769.13;;
22378;SDS011;11357;49.990;7.370;2022-11-12T16:37:31;1656.93;;;789.20;;
22378;SDS011;11357;49.990;7.370;2022-11-12T16:39:56;1511.87;;;780.83;;
22378;SDS011;11357;49.990;7.370;2022-11-12T16:42:22;814.43;;;709.00;;
22378;SDS011;11357;49.990;7.370;2022-11-12T16:44:48;967.93;;;758.53;;
22378;SDS011;11357;49.990;7.370;2022-11-12T16:47:13;774.93;;;692.27;;
22378;SDS011;11357;49.990;7.370;2022-11-12T16:49:39;830.67;;;702.53;;
22378;SDS011;11357;49.990;7.370;2022-11-12T16:52:07;728.40;;;652.53;;
22378;SDS011;11357;49.990;7.370;2022-11-12T16:54:34;718.20;;;639.60;;
22378;SDS011;11357;49.990;7.370;2022-11-12T16:56:59;703.50;;;633.57;;
22378;SDS011;11357;49.990;7.370;2022-11-12T16:59:25;1061.17;;;735.83;;
22378;SDS011;11357;49.990;7.370;2022-11-12T17:01:51;1506.27;;;797.43;;